sensor_id;sensor_type;location;lat;lon;timestamp;temperature;humidity
6666;DHT22;3369;49.906;8.598;2023-01-15T00:00:03;9.10;99.90
6666;DHT22;3369;49.906;8.598;2023-01-15T00:02:29;9.10;99.90
6666;DHT22;3369;49.906;8.598;2023-01-15T00:04:55;9.10;99.90
6666;DHT22;3369;49.906;8.598;2023-01-15T00:07:20;9.20;99.90
6666;DHT22;3369;49.906;8.598;2023-01-15T00:09:46;9.10;99.90
6666;DHT22;3369;49.906;8.598;2023-01-15T00:12:11;9.20;99.90
6666;DHT22;3369;49.906;8.598;2023-01-15T00:14:37;9.20;99.90
6666;DHT22;3369;49.906;8.598;2023-01-15T00:17:02;9.20;99.90
6666;DHT22;3369;49.906;8.598;2023-01-15T00:19:28;9.20;99.90
6666;DHT22;3369;49.906;8.598;2023-01-15T00:21:53;9.20;99.90
6666;DHT22;3369;49.906;8.598;2023-01-15T00:24:19;9.20;99.90
6666;DHT22;3369;49.906;8.598;2023-01-15T00:27:03;9.20;99.90
6666;DHT22;3369;49.906;8.598;2023-01-15T00:29:47;9.20;99.90
6666;DHT22;3369;49.906;8.598;2023-01-15T00:32:12;9.20;99.90
6666;DHT22;3369;49.906;8.598;2023-01-15T00:34:38;9.20;99.90
6666;DHT22;3369;49.906;8.598;2023-01-15T00:37:03;9.20;99.90
6666;DHT22;3369;49.906;8.598;2023-01-15T00:39:29;9.30;99.90
6666;DHT22;3369;49.906;8.598;2023-01-15T00:41:54;9.30;99.90
6666;DHT22;3369;49.906;8.598;2023-01-15T00:44:20;9.30;99.90
6666;DHT22;3369;49.906;8.598;2023-01-15T00:46:46;9.30;99.90
6666;DHT22;3369;49.906;8.598;2023-01-15T00:49:11;9.30;99.90
6666;DHT22;3369;49.906;8.598;2023-01-15T00:51:37;9.30;99.90
6666;DHT22;3369;49.906;8.598;2023-01-15T00:54:02;9.30;99.90
6666;DHT22;3369;49.906;8.598;2023-01-15T00:56:28;9.30;99.90
6666;DHT22;3369;49.906;8.598;2023-01-15T00:58:54;9.30;99.90
6666;DHT22;3369;49.906;8.598;2023-01-15T01:01:19;9.40;99.90
6666;DHT22;3369;49.906;8.598;2023-01-15T01:03:45;9.30;99.90
6666;DHT22;3369;49.906;8.598;2023-01-15T01:06:13;9.30;99.90
6666;DHT22;3369;49.906;8.598;2023-01-15T01:08:39;9.30;99.90
6666;DHT22;3369;49.906;8.598;2023-01-15T01:11:06;9.30;99.90
6666;DHT22;3369;49.906;8.598;2023-01-15T01:13:32;9.30;99.90
6666;DHT22;3369;49.906;8.598;2023-01-15T01:15:58;9.30;99.90
6666;DHT22;3369;49.906;8.598;2023-01-15T01:18:24;9.30;99.90
6666;DHT22;3369;49.906;8.598;2023-01-15T01:20:49;9.30;99.90
6666;DHT22;3369;49.906;8.598;2023-01-15T01:23:15;9.30;99.90
6666;DHT22;3369;49.906;8.598;2023-01-15T01:25:40;9.30;99.90
6666;DHT22;3369;49.906;8.598;2023-01-15T01:28:06;9.30;99.90
6666;DHT22;3369;49.906;8.598;2023-01-15T01:30:31;9.30;99.90
6666;DHT22;3369;49.906;8.598;2023-01-15T01:32:57;9.30;99.90
6666;DHT22;3369;49.906;8.598;2023-01-15T01:35:22;9.30;99.90
6666;DHT22;3369;49.906;8.598;2023-01-15T01:37:51;9.30;99.90
6666;DHT22;3369;49.906;8.598;2023-01-15T01:40:16;9.30;99.90
6666;DHT22;3369;49.906;8.598;2023-01-15T01:42:42;9.30;99.90
6666;DHT22;3369;49.906;8.598;2023-01-15T01:45:30;9.30;99.90
6666;DHT22;3369;49.906;8.598;2023-01-15T01:47:55;9.30;99.90
6666;DHT22;3369;49.906;8.598;2023-01-15T01:50:22;9.30;99.90
6666;DHT22;3369;49.906;8.598;2023-01-15T01:52:50;9.30;99.90
6666;DHT22;3369;49.906;8.598;2023-01-15T01:55:18;9.30;99.90
6666;DHT22;3369;49.906;8.598;2023-01-15T01:57:44;9.30;99.90
6666;DHT22;3369;49.906;8.598;2023-01-15T02:00:11;9.30;99.90
6666;DHT22;3369;49.906;8.598;2023-01-15T02:02:38;9.30;99.90
6666;DHT22;3369;49.906;8.598;2023-01-15T02:05:04;9.30;99.90
6666;DHT22;3369;49.906;8.598;2023-01-15T02:07:32;9.30;99.90
6666;DHT22;3369;49.906;8.598;2023-01-15T02:09:59;9.30;99.90
6666;DHT22;3369;49.906;8.598;2023-01-15T02:12:30;9.30;99.90
6666;DHT22;3369;49.906;8.598;2023-01-15T02:39:37;9.00;99.90
6666;DHT22;3369;49.906;8.598;2023-01-15T02:42:07;9.00;99.90
6666;DHT22;3369;49.906;8.598;2023-01-15T02:44:37;9.00;99.90
6666;DHT22;3369;49.906;8.598;2023-01-15T02:47:04;9.00;99.90
6666;DHT22;3369;49.906;8.598;2023-01-15T02:49:31;9.00;99.90
6666;DHT22;3369;49.906;8.598;2023-01-15T02:52:07;9.00;99.90
6666;DHT22;3369;49.906;8.598;2023-01-15T02:54:40;8.90;99.90
6666;DHT22;3369;49.906;8.598;2023-01-15T02:57:09;8.90;99.90
6666;DHT22;3369;49.906;8.598;2023-01-15T02:59:38;8.90;99.90
6666;DHT22;3369;49.906;8.598;2023-01-15T03:02:18;8.80;99.90
6666;DHT22;3369;49.906;8.598;2023-01-15T03:07:53;8.70;99.90
6666;DHT22;3369;49.906;8.598;2023-01-15T03:10:30;8.60;99.90
6666;DHT22;3369;49.906;8.598;2023-01-15T03:13:00;8.60;99.90
6666;DHT22;3369;49.906;8.598;2023-01-15T03:15:50;8.60;99.90
6666;DHT22;3369;49.906;8.598;2023-01-15T03:18:44;8.60;99.90
6666;DHT22;3369;49.906;8.598;2023-01-15T03:21:12;8.50;99.90
6666;DHT22;3369;49.906;8.598;2023-01-15T03:23:44;8.50;99.90
6666;DHT22;3369;49.906;8.598;2023-01-15T03:26:10;8.50;99.90
6666;DHT22;3369;49.906;8.598;2023-01-15T03:28:37;8.50;99.90
6666;DHT22;3369;49.906;8.598;2023-01-15T03:31:04;8.40;99.90
6666;DHT22;3369;49.906;8.598;2023-01-15T03:33:30;8.40;99.90
6666;DHT22;3369;49.906;8.598;2023-01-15T03:35:58;8.30;99.90
6666;DHT22;3369;49.906;8.598;2023-01-15T03:38:30;8.30;99.90
6666;DHT22;3369;49.906;8.598;2023-01-15T03:41:19;8.20;99.90
6666;DHT22;3369;49.906;8.598;2023-01-15T03:50:41;8.20;99.90
6666;DHT22;3369;49.906;8.598;2023-01-15T03:52:53;8.10;99.90
6666;DHT22;3369;49.906;8.598;2023-01-15T03:55:49;8.10;99.90
6666;DHT22;3369;49.906;8.598;2023-01-15T03:58:46;8.10;99.90
6666;DHT22;3369;49.906;8.598;2023-01-15T04:01:16;8.10;99.90
6666;DHT22;3369;49.906;8.598;2023-01-15T04:03:43;8.00;99.90
6666;DHT22;3369;49.906;8.598;2023-01-15T04:06:10;8.00;99.90
6666;DHT22;3369;49.906;8.598;2023-01-15T04:08:41;7.90;99.90
6666;DHT22;3369;49.906;8.598;2023-01-15T04:11:07;7.90;99.90
6666;DHT22;3369;49.906;8.598;2023-01-15T04:13:32;7.90;99.90
6666;DHT22;3369;49.906;8.598;2023-01-15T04:15:58;7.90;99.90
6666;DHT22;3369;49.906;8.598;2023-01-15T04:18:24;7.80;99.90
6666;DHT22;3369;49.906;8.598;2023-01-15T04:20:50;7.80;99.90
6666;DHT22;3369;49.906;8.598;2023-01-15T04:23:16;7.80;99.90
6666;DHT22;3369;49.906;8.598;2023-01-15T04:25:42;7.70;99.90
6666;DHT22;3369;49.906;8.598;2023-01-15T04:28:08;7.70;99.90
6666;DHT22;3369;49.906;8.598;2023-01-15T04:30:34;7.70;99.90
6666;DHT22;3369;49.906;8.598;2023-01-15T04:33:00;7.70;99.90
6666;DHT22;3369;49.906;8.598;2023-01-15T04:35:26;7.60;99.90
6666;DHT22;3369;49.906;8.598;2023-01-15T04:37:58;7.60;99.90
6666;DHT22;3369;49.906;8.598;2023-01-15T04:40:25;7.50;99.90
6666;DHT22;3369;49.906;8.598;2023-01-15T04:43:10;7.50;99.90
6666;DHT22;3369;49.906;8.598;2023-01-15T04:45:54;7.40;99.90
6666;DHT22;3369;49.906;8.598;2023-01-15T04:48:20;7.40;99.90
6666;DHT22;3369;49.906;8.598;2023-01-15T04:50:46;7.40;99.90
6666;DHT22;3369;49.906;8.598;2023-01-15T04:53:11;7.40;99.90
6666;DHT22;3369;49.906;8.598;2023-01-15T04:55:38;7.30;99.90
6666;DHT22;3369;49.906;8.598;2023-01-15T04:58:03;7.30;99.90
6666;DHT22;3369;49.906;8.598;2023-01-15T05:00:29;7.30;99.90
6666;DHT22;3369;49.906;8.598;2023-01-15T05:02:54;7.20;99.90
6666;DHT22;3369;49.906;8.598;2023-01-15T05:05:20;7.20;99.90
6666;DHT22;3369;49.906;8.598;2023-01-15T05:07:46;7.10;99.90
6666;DHT22;3369;49.906;8.598;2023-01-15T05:10:11;7.10;99.90
6666;DHT22;3369;49.906;8.598;2023-01-15T05:12:37;7.10;99.90
6666;DHT22;3369;49.906;8.598;2023-01-15T05:15:03;7.00;99.90
6666;DHT22;3369;49.906;8.598;2023-01-15T05:17:28;6.90;99.90
6666;DHT22;3369;49.906;8.598;2023-01-15T05:19:56;6.90;99.90
6666;DHT22;3369;49.906;8.598;2023-01-15T05:22:21;6.90;99.90
6666;DHT22;3369;49.906;8.598;2023-01-15T05:24:47;6.90;99.90
6666;DHT22;3369;49.906;8.598;2023-01-15T05:27:13;6.90;99.90
6666;DHT22;3369;49.906;8.598;2023-01-15T05:29:38;6.90;99.90
6666;DHT22;3369;49.906;8.598;2023-01-15T05:32:04;6.90;99.90
6666;DHT22;3369;49.906;8.598;2023-01-15T05:34:30;6.80;99.90
6666;DHT22;3369;49.906;8.598;2023-01-15T05:36:55;6.80;99.90
6666;DHT22;3369;49.906;8.598;2023-01-15T05:39:21;6.70;99.90
6666;DHT22;3369;49.906;8.598;2023-01-15T05:41:46;6.60;99.90
6666;DHT22;3369;49.906;8.598;2023-01-15T05:44:26;6.60;99.90
6666;DHT22;3369;49.906;8.598;2023-01-15T05:46:55;6.50;99.90
6666;DHT22;3369;49.906;8.598;2023-01-15T05:49:24;6.50;99.90
6666;DHT22;3369;49.906;8.598;2023-01-15T05:51:50;6.50;99.90
6666;DHT22;3369;49.906;8.598;2023-01-15T05:54:19;6.50;99.90
6666;DHT22;3369;49.906;8.598;2023-01-15T05:56:44;6.50;99.90
6666;DHT22;3369;49.906;8.598;2023-01-15T05:59:11;6.50;99.90
6666;DHT22;3369;49.906;8.598;2023-01-15T06:01:38;6.40;99.90
6666;DHT22;3369;49.906;8.598;2023-01-15T06:04:05;6.40;99.90
6666;DHT22;3369;49.906;8.598;2023-01-15T06:06:31;6.40;99.90
6666;DHT22;3369;49.906;8.598;2023-01-15T06:08:57;6.40;99.90
6666;DHT22;3369;49.906;8.598;2023-01-15T06:11:23;6.40;99.90
6666;DHT22;3369;49.906;8.598;2023-01-15T06:13:49;6.40;99.90
6666;DHT22;3369;49.906;8.598;2023-01-15T06:16:15;6.40;99.90
6666;DHT22;3369;49.906;8.598;2023-01-15T06:18:41;6.40;99.90
6666;DHT22;3369;49.906;8.598;2023-01-15T06:21:08;6.30;99.90
6666;DHT22;3369;49.906;8.598;2023-01-15T06:23:35;6.30;99.90
6666;DHT22;3369;49.906;8.598;2023-01-15T06:26:06;6.30;99.90
6666;DHT22;3369;49.906;8.598;2023-01-15T06:28:32;6.30;99.90
6666;DHT22;3369;49.906;8.598;2023-01-15T06:30:58;6.30;99.90
6666;DHT22;3369;49.906;8.598;2023-01-15T06:33:24;6.30;99.90
6666;DHT22;3369;49.906;8.598;2023-01-15T06:35:50;6.30;99.90
6666;DHT22;3369;49.906;8.598;2023-01-15T06:38:16;6.20;99.90
6666;DHT22;3369;49.906;8.598;2023-01-15T06:40:42;6.20;99.90
6666;DHT22;3369;49.906;8.598;2023-01-15T06:43:09;6.20;99.90
6666;DHT22;3369;49.906;8.598;2023-01-15T06:45:53;6.10;99.90
6666;DHT22;3369;49.906;8.598;2023-01-15T06:48:51;6.10;99.90
6666;DHT22;3369;49.906;8.598;2023-01-15T06:51:17;6.00;99.90
6666;DHT22;3369;49.906;8.598;2023-01-15T06:53:45;6.00;99.90
6666;DHT22;3369;49.906;8.598;2023-01-15T06:56:12;6.00;99.90
6666;DHT22;3369;49.906;8.598;2023-01-15T06:58:41;5.90;99.90
6666;DHT22;3369;49.906;8.598;2023-01-15T07:01:14;5.90;99.90
6666;DHT22;3369;49.906;8.598;2023-01-15T07:03:40;5.90;99.90
6666;DHT22;3369;49.906;8.598;2023-01-15T07:06:10;5.90;99.90
6666;DHT22;3369;49.906;8.598;2023-01-15T07:08:37;5.90;99.90
6666;DHT22;3369;49.906;8.598;2023-01-15T07:11:04;5.80;99.90
6666;DHT22;3369;49.906;8.598;2023-01-15T07:13:30;5.80;99.90
6666;DHT22;3369;49.906;8.598;2023-01-15T07:16:00;5.80;99.90
6666;DHT22;3369;49.906;8.598;2023-01-15T07:18:28;5.80;99.90
6666;DHT22;3369;49.906;8.598;2023-01-15T07:20:57;5.80;99.90
6666;DHT22;3369;49.906;8.598;2023-01-15T07:23:24;5.80;99.90
6666;DHT22;3369;49.906;8.598;2023-01-15T07:25:54;5.70;99.90
6666;DHT22;3369;49.906;8.598;2023-01-15T07:28:20;5.60;99.90
6666;DHT22;3369;49.906;8.598;2023-01-15T07:30:46;5.60;99.90
6666;DHT22;3369;49.906;8.598;2023-01-15T07:33:11;5.60;99.90
6666;DHT22;3369;49.906;8.598;2023-01-15T07:35:37;5.60;99.90
6666;DHT22;3369;49.906;8.598;2023-01-15T07:38:03;5.60;99.90
6666;DHT22;3369;49.906;8.598;2023-01-15T07:40:29;5.60;99.90
6666;DHT22;3369;49.906;8.598;2023-01-15T07:42:55;5.50;99.90
6666;DHT22;3369;49.906;8.598;2023-01-15T07:45:39;5.60;99.90
6666;DHT22;3369;49.906;8.598;2023-01-15T07:48:25;5.50;99.90
6666;DHT22;3369;49.906;8.598;2023-01-15T07:51:09;5.50;99.90
6666;DHT22;3369;49.906;8.598;2023-01-15T07:53:35;5.40;99.90
6666;DHT22;3369;49.906;8.598;2023-01-15T07:56:01;5.40;99.90
6666;DHT22;3369;49.906;8.598;2023-01-15T07:58:26;5.40;99.90
6666;DHT22;3369;49.906;8.598;2023-01-15T08:00:52;5.50;99.90
6666;DHT22;3369;49.906;8.598;2023-01-15T08:03:17;5.50;99.90
6666;DHT22;3369;49.906;8.598;2023-01-15T08:05:43;5.40;99.90
6666;DHT22;3369;49.906;8.598;2023-01-15T08:08:16;5.50;99.90
6666;DHT22;3369;49.906;8.598;2023-01-15T08:10:42;5.50;99.90
6666;DHT22;3369;49.906;8.598;2023-01-15T08:13:28;5.50;99.90
6666;DHT22;3369;49.906;8.598;2023-01-15T08:16:12;5.50;99.90
6666;DHT22;3369;49.906;8.598;2023-01-15T08:18:38;5.50;99.90
6666;DHT22;3369;49.906;8.598;2023-01-15T08:21:04;5.50;99.90
6666;DHT22;3369;49.906;8.598;2023-01-15T08:23:30;5.50;99.90
6666;DHT22;3369;49.906;8.598;2023-01-15T08:25:59;5.50;99.90
6666;DHT22;3369;49.906;8.598;2023-01-15T08:28:25;5.50;99.90
6666;DHT22;3369;49.906;8.598;2023-01-15T08:30:51;5.50;99.90
6666;DHT22;3369;49.906;8.598;2023-01-15T08:33:16;5.50;99.90
6666;DHT22;3369;49.906;8.598;2023-01-15T08:35:42;5.50;99.90
6666;DHT22;3369;49.906;8.598;2023-01-15T08:38:08;5.50;99.90
6666;DHT22;3369;49.906;8.598;2023-01-15T08:40:34;5.50;99.90
6666;DHT22;3369;49.906;8.598;2023-01-15T08:43:20;5.50;99.90
6666;DHT22;3369;49.906;8.598;2023-01-15T08:45:45;5.50;99.90
6666;DHT22;3369;49.906;8.598;2023-01-15T08:48:11;5.40;99.90
6666;DHT22;3369;49.906;8.598;2023-01-15T08:50:37;5.40;99.90
6666;DHT22;3369;49.906;8.598;2023-01-15T08:53:02;5.40;99.90
6666;DHT22;3369;49.906;8.598;2023-01-15T08:55:28;5.30;99.90
6666;DHT22;3369;49.906;8.598;2023-01-15T08:57:54;5.40;99.90
6666;DHT22;3369;49.906;8.598;2023-01-15T09:00:25;5.40;99.90
6666;DHT22;3369;49.906;8.598;2023-01-15T09:02:51;5.40;99.90
6666;DHT22;3369;49.906;8.598;2023-01-15T09:05:16;5.40;99.90
6666;DHT22;3369;49.906;8.598;2023-01-15T09:07:43;5.40;99.90
6666;DHT22;3369;49.906;8.598;2023-01-15T09:10:09;5.40;99.90
6666;DHT22;3369;49.906;8.598;2023-01-15T09:12:34;5.40;99.90
6666;DHT22;3369;49.906;8.598;2023-01-15T09:15:00;5.40;99.90
6666;DHT22;3369;49.906;8.598;2023-01-15T09:17:26;5.40;99.90
6666;DHT22;3369;49.906;8.598;2023-01-15T09:19:52;5.40;99.90
6666;DHT22;3369;49.906;8.598;2023-01-15T09:22:17;5.40;99.90
6666;DHT22;3369;49.906;8.598;2023-01-15T09:24:43;5.50;99.90
6666;DHT22;3369;49.906;8.598;2023-01-15T09:27:12;5.40;99.90
6666;DHT22;3369;49.906;8.598;2023-01-15T09:29:38;5.40;99.90
6666;DHT22;3369;49.906;8.598;2023-01-15T09:32:03;5.40;99.90
6666;DHT22;3369;49.906;8.598;2023-01-15T09:34:29;5.40;99.90
6666;DHT22;3369;49.906;8.598;2023-01-15T09:36:55;5.40;99.90
6666;DHT22;3369;49.906;8.598;2023-01-15T09:39:20;5.40;99.90
6666;DHT22;3369;49.906;8.598;2023-01-15T09:42:35;5.40;99.90
6666;DHT22;3369;49.906;8.598;2023-01-15T09:44:59;5.40;99.90
6666;DHT22;3369;49.906;8.598;2023-01-15T09:53:17;5.50;99.90
6666;DHT22;3369;49.906;8.598;2023-01-15T09:55:47;5.50;99.90
6666;DHT22;3369;49.906;8.598;2023-01-15T09:58:14;5.50;99.90
6666;DHT22;3369;49.906;8.598;2023-01-15T10:00:49;5.50;99.90
6666;DHT22;3369;49.906;8.598;2023-01-15T10:03:30;5.60;99.90
6666;DHT22;3369;49.906;8.598;2023-01-15T10:06:19;5.60;99.90
6666;DHT22;3369;49.906;8.598;2023-01-15T10:08:47;5.50;99.90
6666;DHT22;3369;49.906;8.598;2023-01-15T10:13:59;5.50;99.90
6666;DHT22;3369;49.906;8.598;2023-01-15T10:16:30;5.50;99.90
6666;DHT22;3369;49.906;8.598;2023-01-15T10:18:59;5.60;99.90
6666;DHT22;3369;49.906;8.598;2023-01-15T10:27:19;5.60;99.90
6666;DHT22;3369;49.906;8.598;2023-01-15T10:29:54;5.60;99.90
6666;DHT22;3369;49.906;8.598;2023-01-15T10:35:14;5.60;99.90
6666;DHT22;3369;49.906;8.598;2023-01-15T10:40:33;5.60;99.90
6666;DHT22;3369;49.906;8.598;2023-01-15T10:45:58;5.60;99.90
6666;DHT22;3369;49.906;8.598;2023-01-15T10:48:56;5.60;99.90
6666;DHT22;3369;49.906;8.598;2023-01-15T10:51:29;5.60;99.90
6666;DHT22;3369;49.906;8.598;2023-01-15T10:54:06;5.60;99.90
6666;DHT22;3369;49.906;8.598;2023-01-15T10:56:34;5.50;99.90
6666;DHT22;3369;49.906;8.598;2023-01-15T10:59:15;5.50;99.90
6666;DHT22;3369;49.906;8.598;2023-01-15T11:01:43;5.50;99.90
6666;DHT22;3369;49.906;8.598;2023-01-15T11:04:10;5.50;99.90
6666;DHT22;3369;49.906;8.598;2023-01-15T11:06:39;5.40;99.90
6666;DHT22;3369;49.906;8.598;2023-01-15T11:09:05;5.30;99.90
6666;DHT22;3369;49.906;8.598;2023-01-15T11:11:42;5.40;99.90
6666;DHT22;3369;49.906;8.598;2023-01-15T11:14:41;5.30;99.90
6666;DHT22;3369;49.906;8.598;2023-01-15T11:17:31;5.30;99.90
6666;DHT22;3369;49.906;8.598;2023-01-15T11:20:45;5.30;99.90
6666;DHT22;3369;49.906;8.598;2023-01-15T11:23:19;5.30;99.90
6666;DHT22;3369;49.906;8.598;2023-01-15T11:25:56;5.20;99.90
6666;DHT22;3369;49.906;8.598;2023-01-15T11:28:36;5.20;99.90
6666;DHT22;3369;49.906;8.598;2023-01-15T11:31:06;5.20;99.90
6666;DHT22;3369;49.906;8.598;2023-01-15T11:33:32;5.20;99.90
6666;DHT22;3369;49.906;8.598;2023-01-15T11:36:01;5.20;99.90
6666;DHT22;3369;49.906;8.598;2023-01-15T11:38:43;5.20;99.90
6666;DHT22;3369;49.906;8.598;2023-01-15T11:41:18;5.20;99.90
6666;DHT22;3369;49.906;8.598;2023-01-15T11:43:58;5.20;99.90
6666;DHT22;3369;49.906;8.598;2023-01-15T11:46:45;5.20;99.90
6666;DHT22;3369;49.906;8.598;2023-01-15T11:49:29;5.20;99.90
6666;DHT22;3369;49.906;8.598;2023-01-15T11:52:17;5.20;99.90
6666;DHT22;3369;49.906;8.598;2023-01-15T11:54:48;5.30;99.90
6666;DHT22;3369;49.906;8.598;2023-01-15T11:57:35;5.40;99.90
6666;DHT22;3369;49.906;8.598;2023-01-15T12:00:02;5.50;99.90
6666;DHT22;3369;49.906;8.598;2023-01-15T12:02:33;5.70;99.90
6666;DHT22;3369;49.906;8.598;2023-01-15T12:05:24;5.90;99.90
6666;DHT22;3369;49.906;8.598;2023-01-15T12:07:53;6.10;99.90
6666;DHT22;3369;49.906;8.598;2023-01-15T12:10:23;6.30;99.90
6666;DHT22;3369;49.906;8.598;2023-01-15T12:18:51;6.70;99.90
6666;DHT22;3369;49.906;8.598;2023-01-15T12:24:30;7.00;99.90
6666;DHT22;3369;49.906;8.598;2023-01-15T12:30:37;7.30;99.90
6666;DHT22;3369;49.906;8.598;2023-01-15T12:32:45;7.50;99.90
6666;DHT22;3369;49.906;8.598;2023-01-15T12:35:34;7.60;99.90
6666;DHT22;3369;49.906;8.598;2023-01-15T12:41:02;7.70;99.90
6666;DHT22;3369;49.906;8.598;2023-01-15T12:43:29;7.70;99.90
6666;DHT22;3369;49.906;8.598;2023-01-15T12:46:20;7.70;99.90
6666;DHT22;3369;49.906;8.598;2023-01-15T12:49:00;7.70;99.90
6666;DHT22;3369;49.906;8.598;2023-01-15T12:51:48;7.70;99.90
6666;DHT22;3369;49.906;8.598;2023-01-15T12:54:20;7.70;99.90
6666;DHT22;3369;49.906;8.598;2023-01-15T12:57:02;7.60;99.90
6666;DHT22;3369;49.906;8.598;2023-01-15T12:59:35;7.50;99.90
6666;DHT22;3369;49.906;8.598;2023-01-15T13:02:09;7.50;99.90
6666;DHT22;3369;49.906;8.598;2023-01-15T13:04:43;7.50;99.90
6666;DHT22;3369;49.906;8.598;2023-01-15T13:09:57;7.30;99.90
6666;DHT22;3369;49.906;8.598;2023-01-15T13:12:24;7.20;99.90
6666;DHT22;3369;49.906;8.598;2023-01-15T13:14:52;7.20;99.90
6666;DHT22;3369;49.906;8.598;2023-01-15T13:18:03;7.20;99.90
6666;DHT22;3369;49.906;8.598;2023-01-15T13:20:50;7.10;99.90
6666;DHT22;3369;49.906;8.598;2023-01-15T13:34:01;6.50;99.90
6666;DHT22;3369;49.906;8.598;2023-01-15T13:36:38;6.40;99.90
6666;DHT22;3369;49.906;8.598;2023-01-15T13:39:13;6.40;99.90
6666;DHT22;3369;49.906;8.598;2023-01-15T13:41:41;6.40;99.90
6666;DHT22;3369;49.906;8.598;2023-01-15T13:44:30;6.40;99.90
6666;DHT22;3369;49.906;8.598;2023-01-15T13:47:09;6.40;99.90
6666;DHT22;3369;49.906;8.598;2023-01-15T13:49:45;6.40;99.90
6666;DHT22;3369;49.906;8.598;2023-01-15T13:52:30;6.40;99.90
6666;DHT22;3369;49.906;8.598;2023-01-15T13:54:59;6.50;99.90
6666;DHT22;3369;49.906;8.598;2023-01-15T13:57:33;6.60;99.90
6666;DHT22;3369;49.906;8.598;2023-01-15T14:00:01;6.70;99.90
6666;DHT22;3369;49.906;8.598;2023-01-15T14:02:31;6.80;99.90
6666;DHT22;3369;49.906;8.598;2023-01-15T14:04:59;6.90;99.90
6666;DHT22;3369;49.906;8.598;2023-01-15T14:07:36;6.90;99.90
6666;DHT22;3369;49.906;8.598;2023-01-15T14:10:54;6.90;99.90
6666;DHT22;3369;49.906;8.598;2023-01-15T14:55:26;6.60;99.90
6666;DHT22;3369;49.906;8.598;2023-01-15T14:57:59;6.60;99.90
6666;DHT22;3369;49.906;8.598;2023-01-15T15:00:38;6.60;99.90
6666;DHT22;3369;49.906;8.598;2023-01-15T15:03:16;6.60;99.90
6666;DHT22;3369;49.906;8.598;2023-01-15T15:05:44;6.60;99.90
6666;DHT22;3369;49.906;8.598;2023-01-15T15:08:15;6.60;99.90
6666;DHT22;3369;49.906;8.598;2023-01-15T15:10:45;6.60;99.90
6666;DHT22;3369;49.906;8.598;2023-01-15T15:13:23;6.60;99.90
6666;DHT22;3369;49.906;8.598;2023-01-15T15:16:04;6.60;99.90
6666;DHT22;3369;49.906;8.598;2023-01-15T15:18:41;6.70;99.90
6666;DHT22;3369;49.906;8.598;2023-01-15T15:21:19;6.70;99.90
6666;DHT22;3369;49.906;8.598;2023-01-15T15:26:37;6.70;99.90
6666;DHT22;3369;49.906;8.598;2023-01-15T15:29:12;6.70;99.90
6666;DHT22;3369;49.906;8.598;2023-01-15T15:34:09;6.60;99.90
6666;DHT22;3369;49.906;8.598;2023-01-15T15:36:39;6.60;99.90
6666;DHT22;3369;49.906;8.598;2023-01-15T15:42:14;6.50;99.90
6666;DHT22;3369;49.906;8.598;2023-01-15T15:45:18;6.50;99.90
6666;DHT22;3369;49.906;8.598;2023-01-15T15:54:05;6.40;99.90
6666;DHT22;3369;49.906;8.598;2023-01-15T15:56:34;6.40;99.90
6666;DHT22;3369;49.906;8.598;2023-01-15T15:59:00;6.30;99.90
6666;DHT22;3369;49.906;8.598;2023-01-15T16:01:26;6.30;99.90
6666;DHT22;3369;49.906;8.598;2023-01-15T16:03:51;6.30;99.90
6666;DHT22;3369;49.906;8.598;2023-01-15T16:06:21;6.30;99.90
6666;DHT22;3369;49.906;8.598;2023-01-15T16:08:50;6.30;99.90
6666;DHT22;3369;49.906;8.598;2023-01-15T16:11:16;6.30;99.90
6666;DHT22;3369;49.906;8.598;2023-01-15T16:13:45;6.30;99.90
6666;DHT22;3369;49.906;8.598;2023-01-15T16:16:12;6.30;99.90
6666;DHT22;3369;49.906;8.598;2023-01-15T16:18:47;6.20;99.90
6666;DHT22;3369;49.906;8.598;2023-01-15T16:21:35;6.20;99.90
6666;DHT22;3369;49.906;8.598;2023-01-15T16:24:04;6.20;99.90
6666;DHT22;3369;49.906;8.598;2023-01-15T16:26:33;6.10;99.90
6666;DHT22;3369;49.906;8.598;2023-01-15T16:29:01;6.10;99.90
6666;DHT22;3369;49.906;8.598;2023-01-15T16:31:31;6.10;99.90
6666;DHT22;3369;49.906;8.598;2023-01-15T16:33:57;6.10;99.90
6666;DHT22;3369;49.906;8.598;2023-01-15T16:36:23;6.10;99.90
6666;DHT22;3369;49.906;8.598;2023-01-15T16:38:49;6.00;99.90
6666;DHT22;3369;49.906;8.598;2023-01-15T16:41:20;6.00;99.90
6666;DHT22;3369;49.906;8.598;2023-01-15T16:43:52;6.00;99.90
6666;DHT22;3369;49.906;8.598;2023-01-15T16:46:18;6.00;99.90
6666;DHT22;3369;49.906;8.598;2023-01-15T16:48:44;6.00;99.90
6666;DHT22;3369;49.906;8.598;2023-01-15T16:51:22;6.00;99.90
6666;DHT22;3369;49.906;8.598;2023-01-15T16:53:51;5.90;99.90
6666;DHT22;3369;49.906;8.598;2023-01-15T16:58:52;5.90;99.90
6666;DHT22;3369;49.906;8.598;2023-01-15T17:03:49;5.80;99.90
6666;DHT22;3369;49.906;8.598;2023-01-15T17:06:16;5.80;99.90
6666;DHT22;3369;49.906;8.598;2023-01-15T17:08:44;5.80;99.90
6666;DHT22;3369;49.906;8.598;2023-01-15T17:11:21;5.70;99.90
6666;DHT22;3369;49.906;8.598;2023-01-15T17:13:48;5.70;99.90
6666;DHT22;3369;49.906;8.598;2023-01-15T17:16:15;5.70;99.90
6666;DHT22;3369;49.906;8.598;2023-01-15T17:18:41;5.60;99.90
6666;DHT22;3369;49.906;8.598;2023-01-15T17:21:09;5.60;99.90
6666;DHT22;3369;49.906;8.598;2023-01-15T17:23:36;5.60;99.90
6666;DHT22;3369;49.906;8.598;2023-01-15T17:26:03;5.60;99.90
6666;DHT22;3369;49.906;8.598;2023-01-15T17:28:29;5.60;99.90
6666;DHT22;3369;49.906;8.598;2023-01-15T17:30:59;5.60;99.90
6666;DHT22;3369;49.906;8.598;2023-01-15T17:33:25;5.60;99.90
6666;DHT22;3369;49.906;8.598;2023-01-15T17:35:50;5.60;99.90
6666;DHT22;3369;49.906;8.598;2023-01-15T17:38:17;5.60;99.90
6666;DHT22;3369;49.906;8.598;2023-01-15T17:40:43;5.60;99.90
6666;DHT22;3369;49.906;8.598;2023-01-15T17:43:12;5.60;99.90
6666;DHT22;3369;49.906;8.598;2023-01-15T17:45:39;5.60;99.90
6666;DHT22;3369;49.906;8.598;2023-01-15T17:48:05;5.60;99.90
6666;DHT22;3369;49.906;8.598;2023-01-15T17:50:34;5.60;99.90
6666;DHT22;3369;49.906;8.598;2023-01-15T17:52:59;5.60;99.90
6666;DHT22;3369;49.906;8.598;2023-01-15T17:55:25;5.60;99.90
6666;DHT22;3369;49.906;8.598;2023-01-15T17:58:12;5.60;99.90
6666;DHT22;3369;49.906;8.598;2023-01-15T18:00:56;5.60;99.90
6666;DHT22;3369;49.906;8.598;2023-01-15T18:03:45;5.60;99.90
6666;DHT22;3369;49.906;8.598;2023-01-15T18:06:30;5.60;99.90
6666;DHT22;3369;49.906;8.598;2023-01-15T18:08:56;5.50;99.90
6666;DHT22;3369;49.906;8.598;2023-01-15T18:11:23;5.50;99.90
6666;DHT22;3369;49.906;8.598;2023-01-15T18:13:48;5.50;99.90
6666;DHT22;3369;49.906;8.598;2023-01-15T18:16:14;5.50;99.90
6666;DHT22;3369;49.906;8.598;2023-01-15T18:18:41;5.50;99.90
6666;DHT22;3369;49.906;8.598;2023-01-15T18:21:07;5.50;99.90
6666;DHT22;3369;49.906;8.598;2023-01-15T18:23:33;5.50;99.90
6666;DHT22;3369;49.906;8.598;2023-01-15T18:26:06;5.50;99.90
6666;DHT22;3369;49.906;8.598;2023-01-15T18:28:33;5.60;99.90
6666;DHT22;3369;49.906;8.598;2023-01-15T18:30:59;5.60;99.90
6666;DHT22;3369;49.906;8.598;2023-01-15T18:33:25;5.60;99.90
6666;DHT22;3369;49.906;8.598;2023-01-15T18:36:00;5.60;99.90
6666;DHT22;3369;49.906;8.598;2023-01-15T18:38:25;5.60;99.90
6666;DHT22;3369;49.906;8.598;2023-01-15T18:40:51;5.70;99.90
6666;DHT22;3369;49.906;8.598;2023-01-15T18:43:16;5.70;99.90
6666;DHT22;3369;49.906;8.598;2023-01-15T18:46:01;5.70;99.90
6666;DHT22;3369;49.906;8.598;2023-01-15T18:48:58;5.70;99.90
6666;DHT22;3369;49.906;8.598;2023-01-15T18:51:23;5.70;99.90
6666;DHT22;3369;49.906;8.598;2023-01-15T18:53:49;5.70;99.90
6666;DHT22;3369;49.906;8.598;2023-01-15T18:56:15;5.70;99.90
6666;DHT22;3369;49.906;8.598;2023-01-15T18:59:00;5.70;99.90
6666;DHT22;3369;49.906;8.598;2023-01-15T19:01:26;5.70;99.90
6666;DHT22;3369;49.906;8.598;2023-01-15T19:03:51;5.70;99.90
6666;DHT22;3369;49.906;8.598;2023-01-15T19:06:17;5.70;99.90